Time;durP1;ratioP1;P1;durP2;ratioP2;P2;SDS_P1;SDS_P2;PMS_P1;PMS_P2;Temp;Humidity;BMP_temperature;BMP_pressure;BME280_temperature;BME280_humidity;BME280_pressure;Samples;Min_cycle;Max_cycle;Signal;HPM_P1;HPM_P2
2023/04/27 00:02:19;;;;;;;;;;;;;;;8.33;46.59;100086.69;4416249;32;34477;-87
2023/04/27 00:04:48;;;;;;;;;;;;;;;8.20;47.20;100087.94;4413272;32;33672;-86
2023/04/27 00:07:18;;;;;;;;;;;;;;;8.46;46.39;100085.44;4404273;32;33541;-87
2023/04/27 00:09:45;;;;;;;;;;;;;;;8.34;46.13;100093.66;4405053;32;32984;-87
2023/04/27 00:12:13;;;;;;;;;;;;;;;7.93;47.79;100095.75;4404640;32;33346;-87
2023/04/27 00:14:40;;;;;;;;;;;;;;;7.89;48.03;100098.50;4416737;32;34038;-86
2023/04/27 00:17:08;;;;;;;;;;;;;;;7.96;46.79;100097.41;4415048;32;34853;-86
2023/04/27 00:19:36;;;;;;;;;;;;;;;8.13;46.65;100096.94;4403552;32;32863;-86
2023/04/27 00:22:05;;;;;;;;;;;;;;;8.05;46.82;100097.16;4418935;32;34333;-86
2023/04/27 00:24:33;;;;;;;;;;;;;;;8.16;47.35;100102.09;4411064;32;34359;-86
2023/04/27 00:27:02;;;;;;;;;;;;;;;8.20;47.51;100101.97;4389603;32;33576;-85
2023/04/27 00:29:29;;;;;;;;;;;;;;;8.16;47.20;100095.06;4417434;32;35831;-86
2023/04/27 00:31:57;;;;;;;;;;;;;;;8.35;46.56;100090.12;4402330;32;33292;-86
2023/04/27 00:34:24;;;;;;;;;;;;;;;8.41;46.44;100090.00;4391131;32;32208;-85
2023/04/27 00:36:52;;;;;;;;;;;;;;;8.38;46.39;100090.06;4417135;32;34482;-86
2023/04/27 00:39:20;;;;;;;;;;;;;;;8.45;45.95;100089.00;4419470;32;33228;-86
2023/04/27 00:41:48;;;;;;;;;;;;;;;8.37;45.97;100082.25;4405961;32;33620;-87
2023/04/27 00:44:25;;;;;;;;;;;;;;;8.45;46.22;100099.53;4404067;32;32708;-86
2023/04/27 00:46:53;;;;;;;;;;;;;;;8.17;46.89;100095.94;4404343;32;33804;-86
2023/04/27 00:49:21;;;;;;;;;;;;;;;8.26;46.28;100097.44;4403664;32;33478;-86
2023/04/27 00:51:48;;;;;;;;;;;;;;;8.19;46.51;100096.75;4413775;32;34387;-86
2023/04/27 00:54:22;;;;;;;;;;;;;;;8.27;46.72;100094.78;4407351;32;32362;-86
2023/04/27 00:56:51;;;;;;;;;;;;;;;8.35;46.33;100092.75;4404482;32;33068;-86
2023/04/27 00:59:19;;;;;;;;;;;;;;;8.37;46.50;100088.34;4405631;32;32643;-85
2023/04/27 01:01:46;;;;;;;;;;;;;;;8.38;46.82;100084.81;4416015;32;34159;-84
2023/04/27 01:04:16;;;;;;;;;;;;;;;8.29;46.79;100086.81;4420554;32;32789;-85
2023/04/27 01:06:44;;;;;;;;;;;;;;;8.33;46.55;100093.72;4416530;32;33429;-85
2023/04/27 01:09:12;;;;;;;;;;;;;;;8.30;46.50;100092.03;4376256;32;811413;-85
2023/04/27 01:11:42;;;;;;;;;;;;;;;8.35;46.49;100086.62;4415933;32;35128;-85
2023/04/27 01:14:09;;;;;;;;;;;;;;;8.27;46.97;100092.16;4402963;32;32106;-86
2023/04/27 01:16:36;;;;;;;;;;;;;;;8.27;46.74;100088.66;4417777;32;34863;-86
2023/04/27 01:19:06;;;;;;;;;;;;;;;8.15;46.85;100087.22;4392503;32;33111;-85
2023/04/27 01:21:33;;;;;;;;;;;;;;;8.11;47.39;100088.22;4403194;32;33050;-85
2023/04/27 01:24:00;;;;;;;;;;;;;;;8.14;47.37;100093.41;4418030;32;33259;-85
2023/04/27 01:26:28;;;;;;;;;;;;;;;8.00;48.40;100090.31;4404245;32;34211;-85
2023/04/27 01:28:56;;;;;;;;;;;;;;;7.85;49.27;100097.72;4403752;32;33633;-84
2023/04/27 01:31:26;;;;;;;;;;;;;;;7.88;49.55;100104.66;4416502;32;32852;-84
2023/04/27 01:33:56;;;;;;;;;;;;;;;7.95;49.12;100101.81;4414818;32;33009;-83
2023/04/27 01:36:24;;;;;;;;;;;;;;;7.85;49.27;100102.13;4405215;32;34480;-83
2023/04/27 01:38:51;;;;;;;;;;;;;;;7.91;49.43;100101.94;4416059;32;34056;-84
2023/04/27 01:41:19;;;;;;;;;;;;;;;7.75;49.83;100112.03;4404203;32;33844;-84
2023/04/27 01:43:47;;;;;;;;;;;;;;;7.67;50.02;100108.72;4405994;32;33354;-84
2023/04/27 01:46:15;;;;;;;;;;;;;;;7.79;49.52;100112.81;4418841;32;33798;-84
2023/04/27 01:48:45;;;;;;;;;;;;;;;7.72;49.84;100112.09;4416066;32;34040;-86
2023/04/27 01:51:12;;;;;;;;;;;;;;;7.85;49.17;100110.88;4417976;32;34105;-86
2023/04/27 01:53:41;;;;;;;;;;;;;;;7.61;50.14;100120.28;4406739;32;32402;-86
2023/04/27 01:56:09;;;;;;;;;;;;;;;7.55;50.83;100109.94;4421991;32;32399;-86
2023/04/27 01:58:36;;;;;;;;;;;;;;;7.54;50.72;100108.19;4416597;32;33078;-86
2023/04/27 02:01:04;;;;;;;;;;;;;;;7.60;50.48;100117.69;4416260;32;34455;-86
2023/04/27 02:03:35;;;;;;;;;;;;;;;7.50;50.54;100111.81;4402087;32;32309;-86
2023/04/27 02:06:04;;;;;;;;;;;;;;;7.46;50.16;100114.56;4417481;32;33762;-87
2023/04/27 02:08:33;;;;;;;;;;;;;;;7.29;50.74;100115.84;4418304;32;33877;-87
2023/04/27 02:11:00;;;;;;;;;;;;;;;7.34;51.04;100121.00;4416912;32;33149;-88
2023/04/27 02:13:29;;;;;;;;;;;;;;;7.35;50.86;100120.94;4407142;32;32009;-89
2023/04/27 02:16:00;;;;;;;;;;;;;;;7.18;51.17;100125.78;4414835;32;34800;-89
2023/04/27 02:18:31;;;;;;;;;;;;;;;7.18;51.33;100124.00;4418344;32;33399;-89
2023/04/27 02:21:01;;;;;;;;;;;;;;;7.14;51.94;100129.38;4417319;32;34126;-90
2023/04/27 02:23:28;;;;;;;;;;;;;;;7.27;51.37;100124.69;4419418;32;33600;-88
2023/04/27 02:25:57;;;;;;;;;;;;;;;7.33;50.97;100130.62;4391240;32;32604;-88
2023/04/27 02:28:24;;;;;;;;;;;;;;;7.08;51.82;100129.53;4416914;32;34375;-88
2023/04/27 02:30:53;;;;;;;;;;;;;;;7.09;52.12;100136.50;4416819;32;34068;-88
2023/04/27 02:33:21;;;;;;;;;;;;;;;7.00;52.84;100142.81;4417068;32;33125;-88
2023/04/27 02:35:54;;;;;;;;;;;;;;;6.99;52.42;100143.72;4420546;32;33792;-88
2023/04/27 02:38:22;;;;;;;;;;;;;;;6.91;52.99;100143.91;4418516;32;35025;-88
2023/04/27 02:40:54;;;;;;;;;;;;;;;6.91;52.95;100143.91;4402415;32;33562;-88
2023/04/27 02:43:22;;;;;;;;;;;;;;;6.91;53.18;100143.03;4405175;32;33020;-88
2023/04/27 02:45:52;;;;;;;;;;;;;;;6.96;52.93;100153.44;4416161;32;32683;-87
2023/04/27 02:48:21;;;;;;;;;;;;;;;6.90;52.97;100163.19;4403837;32;33534;-88
2023/04/27 02:50:55;;;;;;;;;;;;;;;6.93;52.69;100150.00;4415971;32;34177;-87
2023/04/27 02:53:23;;;;;;;;;;;;;;;6.94;52.87;100158.72;4421605;32;33285;-88
2023/04/27 02:55:53;;;;;;;;;;;;;;;6.89;52.75;100150.97;4407193;32;32529;-87
2023/04/27 02:58:21;;;;;;;;;;;;;;;6.96;52.18;100159.53;4403241;32;34174;-87
2023/04/27 03:00:54;;;;;;;;;;;;;;;7.03;52.05;100162.91;4402730;32;33587;-87
2023/04/27 03:03:22;;;;;;;;;;;;;;;6.91;52.66;100161.41;4403378;32;32113;-88
2023/04/27 03:05:53;;;;;;;;;;;;;;;6.96;52.15;100171.81;4406926;32;33667;-87
2023/04/27 03:08:23;;;;;;;;;;;;;;;6.84;52.14;100163.31;4415570;32;33514;-87
2023/04/27 03:10:51;;;;;;;;;;;;;;;6.90;51.73;100173.69;4416691;32;35088;-87
2023/04/27 03:13:21;;;;;;;;;;;;;;;6.74;51.92;100177.56;4414773;32;34339;-87
2023/04/27 03:15:48;;;;;;;;;;;;;;;6.68;52.27;100172.41;4407262;32;33809;-87
2023/04/27 03:18:18;;;;;;;;;;;;;;;6.67;52.41;100168.06;4403920;32;34198;-87
2023/04/27 03:20:46;;;;;;;;;;;;;;;6.65;52.13;100178.63;4402714;32;33241;-87
2023/04/27 03:23:14;;;;;;;;;;;;;;;6.72;52.04;100184.59;4412475;32;34344;-87
2023/04/27 03:25:42;;;;;;;;;;;;;;;6.64;52.15;100181.25;4401779;32;33917;-85
2023/04/27 03:28:10;;;;;;;;;;;;;;;6.65;52.37;100177.75;4413054;32;33612;-85
2023/04/27 03:30:40;;;;;;;;;;;;;;;6.57;52.75;100177.91;4417579;32;33627;-85
2023/04/27 03:33:07;;;;;;;;;;;;;;;6.79;52.44;100186.19;4419062;32;33938;-85
2023/04/27 03:35:35;;;;;;;;;;;;;;;6.65;52.26;100183.00;4416849;32;34638;-84
2023/04/27 03:38:03;;;;;;;;;;;;;;;6.75;52.05;100181.91;4418452;32;35176;-84
2023/04/27 03:40:32;;;;;;;;;;;;;;;6.71;52.33;100187.25;4406383;32;34299;-84
2023/04/27 03:43:00;;;;;;;;;;;;;;;6.43;52.71;100186.97;4402814;32;32847;-84
2023/04/27 03:45:28;;;;;;;;;;;;;;;6.52;52.79;100192.03;4402663;32;32989;-84
2023/04/27 03:47:59;;;;;;;;;;;;;;;6.62;52.57;100196.19;4414657;32;34066;-84
2023/04/27 03:50:27;;;;;;;;;;;;;;;6.71;52.69;100192.50;4403110;32;33322;-84
2023/04/27 03:52:56;;;;;;;;;;;;;;;6.87;52.58;100199.13;4415589;32;33285;-84
2023/04/27 03:55:27;;;;;;;;;;;;;;;6.72;53.04;100204.72;4415428;32;34158;-86
2023/04/27 03:57:55;;;;;;;;;;;;;;;6.71;53.73;100203.84;4416971;32;32803;-86
2023/04/27 04:00:24;;;;;;;;;;;;;;;6.72;53.75;100195.06;4413838;32;34432;-85
2023/04/27 04:02:52;;;;;;;;;;;;;;;6.75;53.48;100200.28;4403653;32;32845;-85
2023/04/27 04:05:21;;;;;;;;;;;;;;;6.62;53.43;100198.81;4414011;32;34852;-84
2023/04/27 04:07:48;;;;;;;;;;;;;;;6.79;52.89;100201.94;4430522;32;34372;-83
2023/04/27 04:10:18;;;;;;;;;;;;;;;6.71;53.47;100203.84;4416993;32;34198;-82
2023/04/27 04:12:47;;;;;;;;;;;;;;;6.90;53.15;100205.19;4414507;32;33602;-83
2023/04/27 04:15:15;;;;;;;;;;;;;;;7.14;52.46;100200.28;4419752;32;34238;-82
2023/04/27 04:17:43;;;;;;;;;;;;;;;6.92;53.10;100210.37;4429170;32;34307;-82
2023/04/27 04:20:11;;;;;;;;;;;;;;;7.11;53.10;100210.84;4401163;32;33456;-82
2023/04/27 04:22:40;;;;;;;;;;;;;;;7.22;53.19;100214.09;4407048;32;32699;-83
2023/04/27 04:25:08;;;;;;;;;;;;;;;7.54;51.50;100215.06;4413531;32;34794;-83
2023/04/27 04:27:36;;;;;;;;;;;;;;;7.75;51.10;100209.28;4415261;32;33706;-84
2023/04/27 04:30:10;;;;;;;;;;;;;;;7.88;50.04;100217.69;4406382;32;34111;-84
2023/04/27 04:32:40;;;;;;;;;;;;;;;8.03;49.68;100219.94;4415660;32;33564;-84
2023/04/27 04:35:10;;;;;;;;;;;;;;;7.94;50.93;100218.41;4402384;32;32653;-85
2023/04/27 04:37:37;;;;;;;;;;;;;;;8.03;51.04;100224.34;4418168;32;34828;-84
2023/04/27 04:40:09;;;;;;;;;;;;;;;8.30;50.44;100220.09;4418086;32;34027;-86
2023/04/27 04:42:38;;;;;;;;;;;;;;;8.19;50.54;100226.50;4418126;32;32728;-86
2023/04/27 04:45:06;;;;;;;;;;;;;;;8.12;50.18;100224.09;4404974;32;34051;-86
2023/04/27 04:47:35;;;;;;;;;;;;;;;8.48;49.11;100221.38;4403474;32;32986;-87
2023/04/27 04:50:04;;;;;;;;;;;;;;;8.52;48.91;100223.03;4403934;32;34250;-85
2023/04/27 04:52:36;;;;;;;;;;;;;;;8.60;48.84;100223.69;4428941;32;34558;-84
2023/04/27 04:55:04;;;;;;;;;;;;;;;8.66;48.37;100224.34;4401631;32;34439;-85
2023/04/27 04:57:32;;;;;;;;;;;;;;;8.71;48.17;100221.59;4402655;32;31010;-85
2023/04/27 05:00:05;;;;;;;;;;;;;;;8.89;47.31;100226.31;4416741;32;34634;-85
2023/04/27 05:02:33;;;;;;;;;;;;;;;9.14;46.96;100230.81;4406694;32;30682;-84
2023/04/27 05:05:09;;;;;;;;;;;;;;;9.27;46.05;100233.94;4417088;32;34676;-84
2023/04/27 05:07:37;;;;;;;;;;;;;;;9.32;46.06;100226.75;4426247;32;35057;-84
2023/04/27 05:10:07;;;;;;;;;;;;;;;9.31;45.76;100223.25;4430059;32;35156;-83
2023/04/27 05:12:37;;;;;;;;;;;;;;;9.56;45.50;100222.47;4416925;32;33651;-84
2023/04/27 05:15:06;;;;;;;;;;;;;;;9.55;45.15;100226.03;4416994;32;34269;-83
2023/04/27 05:17:36;;;;;;;;;;;;;;;9.86;44.88;100218.78;4407279;32;33458;-83
2023/04/27 05:20:04;;;;;;;;;;;;;;;10.09;44.44;100225.91;4418168;32;34495;-82
2023/04/27 05:22:32;;;;;;;;;;;;;;;10.10;43.78;100229.41;4430858;32;33722;-82
2023/04/27 05:27:34;;;;;;;;;;;;;;;10.28;43.14;100228.81;4418488;32;32982;-85
2023/04/27 05:30:02;;;;;;;;;;;;;;;10.41;42.65;100240.66;4412658;32;34353;-84
2023/04/27 05:32:32;;;;;;;;;;;;;;;10.56;41.92;100241.03;4419486;32;33422;-83
2023/04/27 05:35:00;;;;;;;;;;;;;;;10.29;41.69;100235.81;4416502;32;33100;-84
2023/04/27 05:37:29;;;;;;;;;;;;;;;10.66;40.82;100239.75;4421239;32;33277;-89
2023/04/27 05:39:58;;;;;;;;;;;;;;;10.90;40.85;100235.34;4417143;32;34019;-89
2023/04/27 05:42:32;;;;;;;;;;;;;;;11.24;40.68;100233.09;4405828;32;32136;-88
2023/04/27 05:45:00;;;;;;;;;;;;;;;11.43;41.34;100232.38;4401605;32;34372;-88
2023/04/27 05:47:30;;;;;;;;;;;;;;;11.45;40.90;100236.69;4417532;32;35096;-85
2023/04/27 05:50:00;;;;;;;;;;;;;;;11.45;41.02;100244.63;4403794;32;33096;-88
2023/04/27 05:52:29;;;;;;;;;;;;;;;11.68;39.89;100243.69;4403422;32;32232;-85
2023/04/27 05:54:58;;;;;;;;;;;;;;;12.00;40.08;100245.00;4414386;32;34102;-87
2023/04/27 05:57:28;;;;;;;;;;;;;;;11.98;38.44;100246.00;4423689;32;33868;-87
2023/04/27 06:02:39;;;;;;;;;;;;;;;12.02;37.96;100259.03;4403569;32;32307;-87
2023/04/27 06:05:08;;;;;;;;;;;;;;;12.47;37.55;100250.03;4427574;32;34595;-87
2023/04/27 06:07:36;;;;;;;;;;;;;;;12.46;38.30;100253.59;4423517;32;33939;-86
2023/04/27 06:10:06;;;;;;;;;;;;;;;12.67;36.48;100256.22;4403233;32;35533;-87
2023/04/27 06:12:41;;;;;;;;;;;;;;;12.40;36.46;100253.87;4415489;32;33054;-87
2023/04/27 06:15:11;;;;;;;;;;;;;;;12.48;37.64;100257.03;4429108;32;35014;-87
2023/04/27 06:17:40;;;;;;;;;;;;;;;12.59;37.48;100253.94;4416670;32;34462;-86
2023/04/27 06:20:10;;;;;;;;;;;;;;;12.72;37.72;100256.88;4404812;32;32997;-85
2023/04/27 06:22:45;;;;;;;;;;;;;;;12.78;37.80;100265.41;4415603;32;33328;-86
2023/04/27 06:25:14;;;;;;;;;;;;;;;12.74;37.03;100263.84;4402961;32;33648;-86
2023/04/27 06:27:41;;;;;;;;;;;;;;;12.39;38.86;100265.41;4418098;32;34198;-85
2023/04/27 06:30:09;;;;;;;;;;;;;;;12.75;38.51;100262.91;4405638;32;33497;-85
2023/04/27 06:32:38;;;;;;;;;;;;;;;12.70;37.21;100264.03;4410315;32;32970;-84
2023/04/27 06:35:06;;;;;;;;;;;;;;;12.84;36.87;100258.97;4419974;32;33275;-86
2023/04/27 06:37:34;;;;;;;;;;;;;;;13.20;35.35;100267.03;4405196;32;33491;-82
2023/04/27 06:40:05;;;;;;;;;;;;;;;12.58;35.54;100265.47;4419493;32;33157;-83
2023/04/27 06:42:33;;;;;;;;;;;;;;;13.04;34.21;100255.41;4418481;32;31625;-83
2023/04/27 06:45:03;;;;;;;;;;;;;;;13.28;34.08;100254.28;4418756;32;33561;-83
2023/04/27 06:47:31;;;;;;;;;;;;;;;13.54;33.85;100250.37;4405589;32;33460;-83
2023/04/27 06:50:02;;;;;;;;;;;;;;;13.62;32.50;100262.41;4420057;32;33119;-83
2023/04/27 06:52:32;;;;;;;;;;;;;;;14.00;33.93;100273.75;4432813;32;33271;-83
2023/04/27 06:55:00;;;;;;;;;;;;;;;13.69;32.50;100264.69;4416892;32;34184;-83
2023/04/27 06:57:30;;;;;;;;;;;;;;;14.00;32.32;100273.75;4407676;32;33616;-83
2023/04/27 06:59:57;;;;;;;;;;;;;;;14.42;32.09;100261.88;4414560;32;34080;-83
2023/04/27 07:02:26;;;;;;;;;;;;;;;14.62;31.94;100263.53;4406455;32;32577;-83
2023/04/27 07:07:33;;;;;;;;;;;;;;;14.64;31.09;100265.19;4419084;32;33110;-84
2023/04/27 07:10:00;;;;;;;;;;;;;;;14.64;29.81;100269.62;4418052;32;34251;-87
2023/04/27 07:12:30;;;;;;;;;;;;;;;14.68;30.01;100260.56;4419434;32;33002;-87
2023/04/27 07:14:58;;;;;;;;;;;;;;;15.25;29.13;100258.34;4416699;32;32986;-86
2023/04/27 07:17:28;;;;;;;;;;;;;;;15.33;29.97;100264.94;4422184;32;34282;-88
2023/04/27 07:19:56;;;;;;;;;;;;;;;15.60;27.95;100257.19;4407894;32;33401;-87
2023/04/27 07:22:26;;;;;;;;;;;;;;;15.19;28.40;100261.31;4404620;32;32793;-88
2023/04/27 07:24:57;;;;;;;;;;;;;;;15.17;28.55;100263.22;4404613;32;33041;-88
2023/04/27 07:27:26;;;;;;;;;;;;;;;15.39;27.36;100260.22;4406700;32;33411;-88
2023/04/27 07:29:53;;;;;;;;;;;;;;;15.20;27.58;100268.38;4418095;32;34328;-88
2023/04/27 07:32:22;;;;;;;;;;;;;;;14.94;28.59;100269.78;4407104;32;33567;-89
2023/04/27 07:34:55;;;;;;;;;;;;;;;14.97;28.46;100267.81;4406854;32;33031;-88
2023/04/27 07:37:25;;;;;;;;;;;;;;;14.92;29.06;100271.69;4418316;32;33435;-88
2023/04/27 07:39:58;;;;;;;;;;;;;;;15.38;27.96;100277.97;4402499;32;34439;-88
2023/04/27 07:42:28;;;;;;;;;;;;;;;15.35;29.77;100270.16;4420984;32;33677;-90
2023/04/27 07:44:57;;;;;;;;;;;;;;;14.74;30.25;100271.72;4420887;32;34987;-89
2023/04/27 07:47:25;;;;;;;;;;;;;;;15.31;28.97;100271.28;4416614;32;34450;-88
2023/04/27 07:49:54;;;;;;;;;;;;;;;15.08;29.04;100269.88;4423835;32;34135;-89
2023/04/27 07:52:23;;;;;;;;;;;;;;;14.74;28.54;100270.87;4405279;32;33244;-90
2023/04/27 07:54:51;;;;;;;;;;;;;;;14.78;28.90;100265.31;4417041;32;33258;-89
2023/04/27 07:57:18;;;;;;;;;;;;;;;14.69;28.50;100268.44;4417745;32;34269;-87
2023/04/27 07:59:51;;;;;;;;;;;;;;;14.96;27.16;100271.44;4407209;32;32870;-87
2023/04/27 08:02:19;;;;;;;;;;;;;;;15.22;28.11;100274.44;4403255;32;33741;-89
2023/04/27 08:04:48;;;;;;;;;;;;;;;14.89;27.32;100274.50;4414605;32;33908;-89
2023/04/27 08:07:17;;;;;;;;;;;;;;;14.43;29.24;100277.78;4402927;32;34043;-89
2023/04/27 08:09:46;;;;;;;;;;;;;;;14.81;28.87;100275.78;4417934;32;33049;-89
2023/04/27 08:12:15;;;;;;;;;;;;;;;14.93;28.30;100271.59;4400437;32;32747;-90
2023/04/27 08:14:45;;;;;;;;;;;;;;;15.10;28.61;100276.84;4418459;32;34267;-89
2023/04/27 08:17:14;;;;;;;;;;;;;;;15.65;25.89;100269.41;4418700;32;35360;-89
2023/04/27 08:19:44;;;;;;;;;;;;;;;15.20;27.11;100271.03;4401195;32;33968;-89
2023/04/27 08:22:12;;;;;;;;;;;;;;;15.34;27.60;100273.78;4417482;32;33934;-90
2023/04/27 08:24:40;;;;;;;;;;;;;;;15.34;26.71;100273.78;4407508;32;33018;-90
2023/04/27 08:27:11;;;;;;;;;;;;;;;15.59;27.58;100271.44;4405692;32;33376;-90
2023/04/27 08:29:43;;;;;;;;;;;;;;;15.17;28.61;100277.37;4428870;32;34170;-90
2023/04/27 08:32:14;;;;;;;;;;;;;;;15.27;27.89;100275.91;4406751;32;32137;-90
2023/04/27 08:34:45;;;;;;;;;;;;;;;15.38;27.81;100277.97;4418360;32;33754;-90
2023/04/27 08:37:17;;;;;;;;;;;;;;;15.61;25.63;100269.53;4393027;32;34554;-90
2023/04/27 08:39:53;;;;;;;;;;;;;;;15.38;27.22;100277.97;4416552;32;33917;-89
2023/04/27 08:42:22;;;;;;;;;;;;;;;15.58;28.04;100274.22;4415759;32;33061;-89
2023/04/27 08:44:56;;;;;;;;;;;;;;;15.66;25.47;100261.31;4404867;32;33940;-90
2023/04/27 08:47:25;;;;;;;;;;;;;;;15.68;27.19;100277.22;4428044;32;32093;-90
2023/04/27 08:50:09;;;;;;;;;;;;;;;15.71;26.56;100266.38;4417002;32;33349;-91
2023/04/27 08:52:45;;;;;;;;;;;;;;;15.90;26.64;100264.37;4404536;32;33528;-90
2023/04/27 08:55:13;;;;;;;;;;;;;;;16.59;26.13;100263.78;4407726;32;33457;-90
2023/04/27 08:58:03;;;;;;;;;;;;;;;16.79;24.90;100259.91;4406857;32;32996;-90
2023/04/27 09:00:40;;;;;;;;;;;;;;;16.92;24.02;100262.69;4420819;32;33891;-90
2023/04/27 09:03:22;;;;;;;;;;;;;;;16.93;26.32;100263.53;4409053;32;32699;-88
2023/04/27 09:05:50;;;;;;;;;;;;;;;17.20;25.51;100256.47;4405306;32;33301;-90
2023/04/27 09:08:44;;;;;;;;;;;;;;;17.11;24.49;100249.91;4411398;32;33322;-88
2023/04/27 09:11:12;;;;;;;;;;;;;;;17.17;23.11;100247.78;4407824;32;33005;-88
2023/04/27 09:13:44;;;;;;;;;;;;;;;16.78;25.48;100241.34;4417109;32;31430;-88
2023/04/27 09:16:20;;;;;;;;;;;;;;;16.75;26.14;100253.06;4428521;32;34000;-89
2023/04/27 09:18:49;;;;;;;;;;;;;;;16.54;24.82;100249.03;4431659;32;33913;-89
2023/04/27 09:21:26;;;;;;;;;;;;;;;17.00;26.29;100252.41;4402953;32;33991;-89
2023/04/27 09:23:55;;;;;;;;;;;;;;;17.34;25.35;100243.09;4431398;32;33507;-88
2023/04/27 09:26:26;;;;;;;;;;;;;;;17.36;24.56;100237.66;4388988;32;32467;-89
2023/04/27 09:28:56;;;;;;;;;;;;;;;17.51;24.63;100236.63;4422010;32;35030;-89
2023/04/27 09:31:31;;;;;;;;;;;;;;;17.73;23.63;100230.78;4418549;32;34262;-89
2023/04/27 09:33:59;;;;;;;;;;;;;;;17.72;24.37;100228.19;4405338;32;34252;-89
2023/04/27 09:36:27;;;;;;;;;;;;;;;18.12;22.74;100218.34;4416784;32;32205;-87
2023/04/27 09:38:55;;;;;;;;;;;;;;;17.69;23.64;100233.72;4405568;32;34028;-87
2023/04/27 09:41:23;;;;;;;;;;;;;;;17.59;24.67;100230.81;4416729;32;34508;-87
2023/04/27 09:43:57;;;;;;;;;;;;;;;17.78;22.68;100233.16;4404245;32;32856;-86
2023/04/27 09:46:25;;;;;;;;;;;;;;;17.43;23.33;100228.28;4415880;32;34123;-88
2023/04/27 09:48:57;;;;;;;;;;;;;;;17.25;24.20;100229.47;4402813;32;34192;-87
2023/04/27 09:51:27;;;;;;;;;;;;;;;17.03;23.74;100225.50;4417288;32;34068;-88
2023/04/27 09:53:57;;;;;;;;;;;;;;;16.33;27.02;100229.84;4419042;32;32803;-88
2023/04/27 09:56:49;;;;;;;;;;;;;;;16.30;24.70;100219.41;4406478;32;33314;-88
2023/04/27 09:59:36;;;;;;;;;;;;;;;16.46;24.07;100221.97;4419319;32;34497;-89
2023/04/27 10:02:06;;;;;;;;;;;;;;;16.68;25.62;100219.72;4418292;32;34235;-89
2023/04/27 10:05:10;;;;;;;;;;;;;;;16.89;24.33;100222.84;4421999;32;33316;-89
2023/04/27 10:07:40;;;;;;;;;;;;;;;17.32;26.27;100214.78;4426720;32;33609;-89
2023/04/27 10:10:15;;;;;;;;;;;;;;;17.05;25.69;100212.94;4408730;32;33198;-89
2023/04/27 10:12:43;;;;;;;;;;;;;;;17.47;23.56;100205.78;4412852;32;33151;-88
2023/04/27 10:15:13;;;;;;;;;;;;;;;17.94;24.65;100196.41;4418394;32;32538;-89
2023/04/27 10:17:53;;;;;;;;;;;;;;;18.45;23.27;100196.47;4405699;32;33679;-88
2023/04/27 10:20:31;;;;;;;;;;;;;;;18.56;22.77;100193.03;4399405;32;33254;-90
2023/04/27 10:23:02;;;;;;;;;;;;;;;18.48;22.53;100196.25;4417119;32;33164;-88
2023/04/27 10:25:37;;;;;;;;;;;;;;;18.74;22.11;100196.25;4407227;32;32372;-89
2023/04/27 10:28:09;;;;;;;;;;;;;;;18.22;22.86;100194.53;4420405;32;33508;-89
2023/04/27 10:30:45;;;;;;;;;;;;;;;18.14;22.81;100195.06;4421848;32;33793;-89
2023/04/27 10:33:15;;;;;;;;;;;;;;;18.25;24.60;100199.69;4407013;32;33319;-89
2023/04/27 10:35:56;;;;;;;;;;;;;;;18.74;22.93;100190.91;4417587;32;31255;-89
2023/04/27 10:38:29;;;;;;;;;;;;;;;18.69;24.27;100188.56;4418868;32;32912;-89
2023/04/27 10:41:00;;;;;;;;;;;;;;;18.42;25.11;100196.69;4403604;32;35049;-88
2023/04/27 10:43:30;;;;;;;;;;;;;;;18.65;21.94;100203.06;4404566;32;33197;-88
2023/04/27 10:46:13;;;;;;;;;;;;;;;17.94;23.01;100199.09;4420757;32;34369;-88
2023/04/27 10:51:23;;;;;;;;;;;;;;;18.10;23.50;100197.09;4433031;32;36553;-88
2023/04/27 10:53:51;;;;;;;;;;;;;;;18.32;22.84;100195.59;4417651;32;32323;-88
2023/04/27 10:56:22;;;;;;;;;;;;;;;18.61;23.17;100196.22;4404237;32;33815;-89
2023/04/27 10:58:50;;;;;;;;;;;;;;;18.53;25.33;100194.09;4419411;32;32999;-88
2023/04/27 11:04:01;;;;;;;;;;;;;;;18.77;24.76;100201.41;4421083;32;34528;-89
2023/04/27 11:06:33;;;;;;;;;;;;;;;18.46;24.18;100206.19;4405566;32;32308;-88
2023/04/27 11:09:05;;;;;;;;;;;;;;;19.08;23.12;100192.00;4418278;32;33458;-88
2023/04/27 11:11:33;;;;;;;;;;;;;;;18.97;23.90;100187.44;4419511;32;34803;-88
2023/04/27 11:14:02;;;;;;;;;;;;;;;19.35;22.31;100181.09;4392926;32;32898;-88
2023/04/27 11:16:31;;;;;;;;;;;;;;;19.00;23.00;100189.91;4419106;32;32661;-88
2023/04/27 11:19:04;;;;;;;;;;;;;;;19.22;23.27;100191.00;4431688;32;33055;-88
2023/04/27 11:21:31;;;;;;;;;;;;;;;19.28;24.04;100180.72;4402476;32;33268;-88
2023/04/27 11:24:05;;;;;;;;;;;;;;;19.61;22.13;100193.44;4415687;32;34779;-87
2023/04/27 11:26:37;;;;;;;;;;;;;;;19.26;22.36;100193.34;4428148;32;34199;-89
2023/04/27 11:29:11;;;;;;;;;;;;;;;19.53;22.80;100182.41;4419483;32;33834;-89
2023/04/27 11:31:52;;;;;;;;;;;;;;;19.05;23.04;100185.06;4417666;32;33873;-88
2023/04/27 11:34:22;;;;;;;;;;;;;;;19.41;23.11;100183.31;4431147;32;34771;-89
2023/04/27 11:36:58;;;;;;;;;;;;;;;19.81;20.98;100183.03;4403487;32;31877;-89
2023/04/27 11:39:47;;;;;;;;;;;;;;;19.86;21.22;100188.91;4427399;32;34162;-88
2023/04/27 11:42:24;;;;;;;;;;;;;;;19.78;21.58;100185.94;4428331;32;36004;-88
2023/04/27 11:44:53;;;;;;;;;;;;;;;19.56;22.87;100190.22;4418828;32;33870;-89
2023/04/27 11:47:24;;;;;;;;;;;;;;;19.58;21.73;100190.94;4429979;32;32769;-88
2023/04/27 11:49:59;;;;;;;;;;;;;;;19.72;22.65;100178.38;4408125;32;33126;-88
2023/04/27 11:52:28;;;;;;;;;;;;;;;19.59;22.11;100189.13;4416959;32;33922;-88
2023/04/27 11:54:56;;;;;;;;;;;;;;;19.81;21.66;100189.25;4403424;32;33395;-87
2023/04/27 11:57:28;;;;;;;;;;;;;;;19.76;22.42;100182.53;4416408;32;33113;-86
2023/04/27 11:59:59;;;;;;;;;;;;;;;20.01;21.88;100190.41;4403263;32;33478;-88
2023/04/27 12:02:41;;;;;;;;;;;;;;;19.94;21.71;100190.03;4394225;32;34216;-87
2023/04/27 12:05:11;;;;;;;;;;;;;;;19.44;20.91;100189.28;4406300;32;33419;-88
2023/04/27 12:07:45;;;;;;;;;;;;;;;19.47;22.64;100190.91;4420460;32;32756;-88
2023/04/27 12:10:13;;;;;;;;;;;;;;;19.57;21.21;100186.56;4417190;32;34048;-88
2023/04/27 12:12:41;;;;;;;;;;;;;;;19.53;22.76;100187.75;4416100;32;34711;-89
2023/04/27 12:15:15;;;;;;;;;;;;;;;19.68;21.32;100189.31;4418027;32;33767;-89
2023/04/27 12:17:48;;;;;;;;;;;;;;;19.63;21.75;100190.63;4406612;32;32591;-89
2023/04/27 12:20:19;;;;;;;;;;;;;;;19.65;22.43;100183.31;4411912;32;33663;-88
2023/04/27 12:22:47;;;;;;;;;;;;;;;19.68;21.92;100181.28;4420244;32;34159;-89
2023/04/27 12:25:16;;;;;;;;;;;;;;;19.42;21.44;100182.38;4407597;32;32728;-89
2023/04/27 12:27:46;;;;;;;;;;;;;;;19.39;21.80;100177.22;4419328;32;33168;-88
2023/04/27 12:30:21;;;;;;;;;;;;;;;19.76;21.15;100179.84;4416240;32;32910;-89
2023/04/27 12:32:59;;;;;;;;;;;;;;;19.69;21.42;100174.94;4416939;32;36390;-88
2023/04/27 12:35:30;;;;;;;;;;;;;;;19.17;21.40;100172.59;4411771;32;33629;-88
2023/04/27 12:38:00;;;;;;;;;;;;;;;18.81;21.87;100171.63;4420894;32;33601;-88
2023/04/27 12:40:31;;;;;;;;;;;;;;;18.86;23.00;100182.87;4432970;32;33178;-88
2023/04/27 12:43:00;;;;;;;;;;;;;;;18.73;22.89;100175.81;4409835;32;34308;-88
2023/04/27 12:45:29;;;;;;;;;;;;;;;18.86;22.27;100179.34;4421803;32;33103;-88
2023/04/27 12:48:02;;;;;;;;;;;;;;;18.57;23.03;100171.53;4420677;32;33395;-89
2023/04/27 12:50:38;;;;;;;;;;;;;;;18.73;23.71;100174.00;4418204;32;34863;-89
2023/04/27 12:53:15;;;;;;;;;;;;;;;19.00;22.91;100171.16;4421264;32;33595;-88
2023/04/27 12:58:23;;;;;;;;;;;;;;;19.07;22.54;100172.41;4418749;32;32446;-88
2023/04/27 13:00:51;;;;;;;;;;;;;;;18.95;23.86;100176.00;4420513;32;33280;-88
2023/04/27 13:03:30;;;;;;;;;;;;;;;18.73;22.53;100178.50;4418004;32;33154;-88
2023/04/27 13:06:10;;;;;;;;;;;;;;;18.73;22.36;100174.00;4420274;32;31520;-87
2023/04/27 13:08:39;;;;;;;;;;;;;;;19.47;21.54;100169.47;4408421;32;36123;-90
2023/04/27 13:11:15;;;;;;;;;;;;;;;18.94;23.67;100179.63;4417203;32;33939;-90
2023/04/27 13:13:43;;;;;;;;;;;;;;;19.00;22.24;100176.50;4396882;32;34475;-90